createdAt,value
2019-03-21T00:00:23.392Z,5.70
2019-03-21T00:01:23.515Z,7.20
2019-03-21T00:02:23.670Z,8.20
2019-03-21T00:03:23.838Z,7.40
2019-03-21T00:04:23.990Z,8.00
2019-03-21T00:05:24.124Z,8.20
2019-03-21T00:06:24.261Z,6.60
2019-03-21T00:07:24.453Z,8.10
2019-03-21T00:08:24.492Z,9.10
2019-03-21T00:09:24.675Z,7.10
2019-03-21T00:10:24.813Z,6.80
2019-03-21T00:11:24.982Z,6.30
2019-03-21T00:12:25.122Z,8.00
2019-03-21T00:13:25.337Z,8.80
2019-03-21T00:14:25.529Z,6.10
2019-03-21T00:15:25.718Z,6.50
2019-03-21T00:16:25.809Z,7.10
2019-03-21T00:17:25.998Z,9.00
2019-03-21T00:18:26.194Z,6.10
2019-03-21T00:19:26.379Z,7.60
2019-03-21T00:20:26.522Z,6.60
2019-03-21T00:21:26.628Z,7.20
2019-03-21T00:22:50.938Z,6.90
2019-03-21T00:23:26.973Z,8.50
2019-03-21T00:24:36.945Z,7.20
2019-03-21T00:25:36.448Z,6.80
2019-03-21T00:26:35.380Z,7.80
2019-03-21T00:27:28.257Z,9.80
2019-03-21T00:28:27.740Z,7.50
2019-03-21T00:29:27.841Z,7.30
2019-03-21T00:30:28.738Z,5.60
2019-03-21T00:31:28.192Z,7.90
2019-03-21T00:32:28.407Z,7.70
2019-03-21T00:33:28.613Z,7.30
2019-03-21T00:34:28.829Z,5.90
2019-03-21T00:35:29.065Z,6.80
2019-03-21T00:36:29.154Z,8.80
2019-03-21T00:37:29.353Z,8.70
2019-03-21T00:38:30.487Z,8.00
2019-03-21T00:39:32.956Z,8.50
2019-03-21T00:40:29.901Z,6.80
2019-03-21T00:41:30.139Z,7.90
2019-03-21T00:42:30.279Z,7.90
2019-03-21T00:43:30.377Z,6.80
2019-03-21T00:44:30.450Z,6.40
2019-03-21T00:45:30.647Z,6.10
2019-03-21T00:46:30.874Z,7.10
2019-03-21T00:47:31.728Z,6.40
2019-03-21T00:48:31.177Z,5.70
2019-03-21T00:49:31.383Z,5.60
2019-03-21T00:50:31.641Z,6.70
2019-03-21T00:51:31.715Z,7.10
2019-03-21T00:52:32.735Z,6.20
2019-03-21T00:53:32.097Z,8.80
2019-03-21T00:54:32.176Z,7.80
2019-03-21T00:55:33.239Z,6.70
2019-03-21T00:56:32.578Z,8.00
2019-03-21T00:57:34.249Z,8.70
2019-03-21T00:58:33.789Z,7.10
2019-03-21T00:59:32.997Z,8.70
2019-03-21T01:00:33.197Z,6.90
2019-03-21T01:01:33.408Z,6.10
2019-03-21T01:02:33.615Z,5.80
2019-03-21T01:03:33.813Z,5.60
2019-03-21T01:04:34.008Z,7.90
2019-03-21T01:05:34.251Z,6.50
2019-03-21T01:06:34.352Z,8.10
2019-03-21T01:07:35.215Z,10.00
2019-03-21T01:08:34.637Z,7.30
2019-03-21T01:09:34.875Z,6.50
2019-03-21T01:10:34.945Z,6.20
2019-03-21T01:11:35.180Z,6.00
2019-03-21T01:12:35.332Z,7.60
2019-03-21T01:13:35.557Z,6.90
2019-03-21T01:14:35.748Z,7.10
2019-03-21T01:15:36.792Z,7.10
2019-03-21T01:16:36.260Z,7.80
2019-03-21T01:17:37.270Z,6.70
2019-03-21T01:18:36.464Z,7.00
2019-03-21T01:19:36.730Z,6.70
2019-03-21T01:20:36.870Z,8.80
2019-03-21T01:21:37.734Z,7.80
2019-03-21T01:22:37.165Z,7.60
2019-03-21T01:23:37.362Z,7.40
2019-03-21T01:24:37.549Z,6.90
2019-03-21T01:25:37.729Z,6.90
2019-03-21T01:26:37.895Z,10.40
2019-03-21T01:27:38.057Z,8.80
2019-03-21T01:28:38.297Z,8.50
2019-03-21T01:29:38.358Z,7.20
2019-03-21T01:30:38.564Z,7.50
2019-03-21T01:31:38.702Z,5.60
2019-03-21T01:32:38.858Z,5.50
2019-03-21T01:33:39.020Z,6.00
2019-03-21T01:34:39.138Z,6.80
2019-03-21T01:35:39.291Z,5.40
2019-03-21T01:36:39.484Z,6.60
2019-03-21T01:37:39.538Z,6.40
2019-03-21T01:38:39.685Z,7.90
2019-03-21T01:39:39.940Z,5.00
2019-03-21T01:40:40.115Z,7.10
2019-03-21T01:41:40.243Z,6.50
2019-03-21T01:42:40.426Z,6.90
2019-03-21T01:43:40.584Z,7.20
2019-03-21T01:44:41.570Z,6.30
2019-03-21T01:45:40.915Z,7.10
2019-03-21T01:46:41.076Z,7.90
2019-03-21T01:47:41.287Z,6.60
2019-03-21T01:48:41.476Z,6.60
2019-03-21T01:49:41.660Z,5.00
2019-03-21T01:50:41.733Z,7.00
2019-03-21T01:51:41.913Z,6.70
2019-03-21T01:52:42.063Z,7.50
2019-03-21T01:53:42.210Z,6.90
2019-03-21T01:54:42.395Z,6.20
2019-03-21T01:55:42.604Z,6.90
2019-03-21T01:56:42.755Z,5.10
2019-03-21T01:57:42.914Z,5.90
2019-03-21T01:58:43.146Z,7.60
2019-03-21T01:59:43.329Z,7.80
2019-03-21T02:00:43.538Z,6.70
2019-03-21T02:01:43.619Z,6.80
2019-03-21T02:02:43.761Z,8.00
2019-03-21T02:03:43.939Z,6.60
2019-03-21T02:04:44.079Z,7.80
2019-03-21T02:05:44.248Z,5.40
2019-03-21T02:06:44.383Z,6.70
2019-03-21T02:07:44.558Z,6.00
2019-03-21T02:08:44.797Z,7.30
2019-03-21T02:09:44.880Z,5.00
2019-03-21T02:10:45.012Z,6.00
2019-03-21T02:11:45.159Z,8.40
2019-03-21T02:12:45.316Z,7.50
2019-03-21T02:13:48.977Z,7.50
2019-03-21T02:14:52.392Z,8.70
2019-03-21T02:15:50.671Z,7.10
2019-03-21T02:16:46.052Z,7.10
2019-03-21T02:17:46.206Z,6.80
2019-03-21T02:18:46.484Z,8.30
2019-03-21T02:19:46.614Z,6.70
2019-03-21T02:20:46.704Z,8.20
2019-03-21T02:21:46.791Z,7.00
2019-03-21T02:22:46.985Z,6.20
2019-03-21T02:23:47.044Z,6.40
2019-03-21T02:24:47.180Z,6.50
2019-03-21T02:25:47.388Z,8.30
2019-03-21T02:26:47.544Z,5.80
2019-03-21T02:27:47.721Z,7.90
2019-03-21T02:28:47.893Z,7.30
2019-03-21T02:29:48.082Z,6.60
2019-03-21T02:30:48.234Z,6.00
2019-03-21T02:31:48.349Z,5.80
2019-03-21T02:32:48.575Z,6.10
2019-03-21T02:33:48.731Z,6.70
2019-03-21T02:34:48.778Z,4.70
2019-03-21T02:35:48.989Z,6.50
2019-03-21T02:36:49.137Z,7.50
2019-03-21T02:37:49.280Z,6.80
2019-03-21T02:38:49.451Z,7.60
2019-03-21T02:39:59.258Z,5.60
2019-03-21T02:40:49.758Z,5.80
2019-03-21T02:41:49.900Z,7.20
2019-03-21T02:42:50.061Z,6.10
2019-03-21T02:43:50.257Z,7.90
2019-03-21T02:44:50.476Z,6.30
2019-03-21T02:45:50.591Z,5.90
2019-03-21T02:46:50.700Z,7.70
2019-03-21T02:47:50.862Z,4.90
2019-03-21T02:48:51.029Z,5.70
2019-03-21T02:49:51.194Z,4.90
2019-03-21T02:50:51.352Z,6.40
2019-03-21T02:51:51.522Z,7.00
2019-03-21T02:52:51.660Z,6.10
2019-03-21T02:53:51.806Z,6.10
2019-03-21T02:54:51.884Z,7.30
2019-03-21T02:55:52.104Z,5.60
2019-03-21T02:56:52.255Z,7.20
2019-03-21T02:57:52.401Z,8.80
2019-03-21T02:58:52.548Z,6.70
2019-03-21T02:59:52.809Z,6.10
2019-03-21T03:00:52.830Z,6.30
2019-03-21T03:01:53.000Z,8.00
2019-03-21T03:02:53.136Z,7.50
2019-03-21T03:03:53.327Z,7.90
2019-03-21T03:04:53.477Z,6.00
2019-03-21T03:05:53.653Z,6.40
2019-03-21T03:06:53.790Z,5.50
2019-03-21T03:07:53.954Z,6.80
2019-03-21T03:08:54.117Z,5.60
2019-03-21T03:09:54.301Z,6.30
2019-03-21T03:10:54.461Z,7.70
2019-03-21T03:11:54.653Z,7.30
2019-03-21T03:12:54.890Z,6.50
2019-03-21T03:13:54.982Z,6.40
2019-03-21T03:14:55.142Z,7.90
2019-03-21T03:15:55.302Z,6.00
2019-03-21T03:16:55.452Z,5.60
2019-03-21T03:17:55.631Z,4.90
2019-03-21T03:18:55.778Z,5.80
2019-03-21T03:19:55.929Z,6.90
2019-03-21T03:20:56.085Z,7.10
2019-03-21T03:21:56.249Z,7.40
2019-03-21T03:22:56.391Z,5.20
2019-03-21T03:23:56.537Z,6.10
2019-03-21T03:24:56.679Z,6.20
2019-03-21T03:25:56.837Z,6.60
2019-03-21T03:26:56.986Z,5.80
2019-03-21T03:27:57.116Z,5.50
2019-03-21T03:28:57.265Z,4.80
2019-03-21T03:29:57.415Z,6.60
2019-03-21T03:30:57.613Z,6.40
2019-03-21T03:31:57.734Z,6.10
2019-03-21T03:32:57.877Z,6.20
2019-03-21T03:33:58.025Z,7.10
2019-03-21T03:34:58.166Z,7.00
2019-03-21T03:35:58.337Z,5.20
2019-03-21T03:36:58.493Z,6.40
2019-03-21T03:37:58.694Z,7.40
2019-03-21T03:38:58.864Z,7.30
2019-03-21T03:39:58.930Z,5.10
2019-03-21T03:40:59.196Z,6.60
2019-03-21T03:41:59.405Z,6.00
2019-03-21T03:42:59.552Z,4.80
2019-03-21T03:43:59.682Z,5.70
2019-03-21T03:45:00.914Z,5.70
2019-03-21T03:46:00.015Z,5.30
2019-03-21T03:47:00.519Z,5.90
2019-03-21T03:48:00.205Z,5.60
2019-03-21T03:49:00.374Z,8.70
2019-03-21T03:50:00.613Z,5.50
2019-03-21T03:51:00.665Z,6.90
2019-03-21T03:52:00.886Z,6.50
2019-03-21T03:53:00.949Z,4.80
2019-03-21T03:54:01.159Z,7.50
2019-03-21T03:55:01.276Z,5.30
2019-03-21T03:56:01.466Z,5.30
2019-03-21T03:57:01.668Z,5.80
2019-03-21T03:58:01.758Z,5.20
2019-03-21T03:59:01.933Z,6.70
2019-03-21T04:00:02.176Z,5.60
2019-03-21T04:01:02.237Z,6.20
2019-03-21T04:02:02.407Z,4.80
2019-03-21T04:03:02.678Z,5.00
2019-03-21T04:04:02.691Z,4.80
2019-03-21T04:05:02.890Z,7.70
2019-03-21T04:06:03.064Z,7.50
2019-03-21T04:07:03.241Z,6.50
2019-03-21T04:08:03.342Z,6.70
2019-03-21T04:09:03.489Z,6.80
2019-03-21T04:10:03.628Z,5.90
2019-03-21T04:11:03.788Z,5.80
2019-03-21T04:12:11.333Z,7.70
2019-03-21T04:13:04.096Z,5.50
2019-03-21T04:14:11.855Z,6.10
2019-03-21T04:15:12.206Z,4.90
2019-03-21T04:16:12.244Z,6.20
2019-03-21T04:17:13.190Z,6.70
2019-03-21T04:18:05.017Z,6.00
2019-03-21T04:19:05.205Z,8.30
2019-03-21T04:20:05.414Z,6.80
2019-03-21T04:21:05.628Z,8.30
2019-03-21T04:22:05.705Z,6.60
2019-03-21T04:23:05.989Z,8.30
2019-03-21T04:24:06.055Z,5.40
2019-03-21T04:25:06.861Z,7.40
2019-03-21T04:26:06.446Z,5.80
2019-03-21T04:27:06.649Z,6.70
2019-03-21T04:28:06.849Z,6.50
2019-03-21T04:29:07.044Z,6.70
2019-03-21T04:30:07.305Z,8.00
2019-03-21T04:31:07.419Z,8.30
2019-03-21T04:32:07.713Z,6.00
2019-03-21T04:33:07.661Z,7.30
2019-03-21T04:34:07.860Z,7.30
2019-03-21T04:35:08.050Z,6.00
2019-03-21T04:36:08.891Z,6.20
2019-03-21T04:37:08.460Z,7.10
2019-03-21T04:38:10.351Z,6.80
2019-03-21T04:39:09.390Z,5.30
2019-03-21T04:40:09.098Z,6.30
2019-03-21T04:41:09.173Z,7.10
2019-03-21T04:42:09.369Z,8.70
2019-03-21T04:43:09.569Z,8.20
2019-03-21T04:44:09.851Z,7.20
2019-03-21T04:45:09.875Z,6.30
2019-03-21T04:46:11.854Z,8.30
2019-03-21T04:47:10.189Z,8.10
2019-03-21T04:48:10.436Z,7.10
2019-03-21T04:49:10.603Z,7.50
2019-03-21T04:50:10.806Z,8.80
2019-03-21T04:51:11.026Z,7.90
2019-03-21T04:52:11.199Z,7.60
2019-03-21T04:53:11.437Z,7.60
2019-03-21T04:54:11.537Z,7.00
2019-03-21T04:55:12.720Z,7.70
2019-03-21T04:56:11.821Z,7.50
2019-03-21T04:57:11.916Z,7.50
2019-03-21T04:58:11.999Z,7.70
2019-03-21T04:59:12.280Z,7.40
2019-03-21T05:00:12.375Z,7.80
2019-03-21T05:01:12.646Z,9.00
2019-03-21T05:02:12.657Z,7.70
2019-03-21T05:03:12.796Z,7.00
2019-03-21T05:04:12.921Z,7.50
2019-03-21T05:05:13.198Z,7.30
2019-03-21T05:06:13.436Z,6.10
2019-03-21T05:07:13.607Z,7.90
2019-03-21T05:08:13.865Z,8.60
2019-03-21T05:09:13.807Z,8.00
2019-03-21T05:10:13.943Z,8.90
2019-03-21T05:11:14.098Z,7.20
2019-03-21T05:12:14.253Z,6.60
2019-03-21T05:13:14.451Z,7.00
2019-03-21T05:14:14.613Z,7.00
2019-03-21T05:15:14.793Z,7.00
2019-03-21T05:16:15.239Z,7.80
2019-03-21T05:17:15.141Z,9.00
2019-03-21T05:18:16.464Z,7.70
2019-03-21T05:19:15.582Z,9.10
2019-03-21T05:20:15.755Z,8.10
2019-03-21T05:21:15.923Z,6.80
2019-03-21T05:22:16.099Z,9.30
2019-03-21T05:23:16.284Z,7.10
2019-03-21T05:24:16.387Z,7.60
2019-03-21T05:25:17.536Z,9.90
2019-03-21T05:26:16.915Z,7.70
2019-03-21T05:27:16.959Z,7.30
2019-03-21T05:28:17.038Z,7.50
2019-03-21T05:29:17.186Z,9.60
2019-03-21T05:30:18.253Z,8.30
2019-03-21T05:31:17.525Z,8.90
2019-03-21T05:32:17.674Z,7.30
2019-03-21T05:33:17.785Z,10.30
2019-03-21T05:34:18.032Z,6.50
2019-03-21T05:35:18.105Z,9.10
2019-03-21T05:36:18.377Z,9.80
2019-03-21T05:37:18.549Z,7.20
2019-03-21T05:38:18.692Z,6.70
2019-03-21T05:39:18.847Z,8.20
2019-03-21T05:40:20.282Z,6.50
2019-03-21T05:41:19.740Z,7.20
2019-03-21T05:42:19.421Z,9.70
2019-03-21T05:43:19.635Z,7.80
2019-03-21T05:44:19.687Z,6.30
2019-03-21T05:45:19.855Z,6.60
2019-03-21T05:46:26.477Z,7.10
2019-03-21T05:47:20.827Z,7.60
2019-03-21T05:48:20.501Z,7.40
2019-03-21T05:49:20.487Z,7.00
2019-03-21T05:50:20.651Z,9.10
2019-03-21T05:51:20.959Z,8.60
2019-03-21T05:52:21.002Z,8.70
2019-03-21T05:53:21.089Z,7.00
2019-03-21T05:54:21.534Z,7.80
2019-03-21T05:55:21.649Z,7.50
2019-03-21T05:56:21.653Z,8.50
2019-03-21T05:57:21.848Z,6.40
2019-03-21T05:58:22.041Z,7.90
2019-03-21T05:59:22.134Z,6.80
2019-03-21T06:00:23.134Z,8.80
2019-03-21T06:01:23.839Z,7.90
2019-03-21T06:02:22.597Z,6.90
2019-03-21T06:03:22.760Z,8.00
2019-03-21T06:04:22.873Z,6.60
2019-03-21T06:05:23.025Z,7.40
2019-03-21T06:06:23.265Z,7.20
2019-03-21T06:07:24.135Z,9.40
2019-03-21T06:08:24.823Z,7.80
2019-03-21T06:09:23.722Z,6.80
2019-03-21T06:10:23.959Z,7.90
2019-03-21T06:11:24.254Z,5.20
2019-03-21T06:12:24.194Z,8.80
2019-03-21T06:13:24.448Z,6.50
2019-03-21T06:14:24.494Z,6.40
2019-03-21T06:15:26.479Z,6.20
2019-03-21T06:16:24.954Z,6.10
2019-03-21T06:17:25.020Z,7.50
2019-03-21T06:18:25.665Z,6.70
2019-03-21T06:19:25.508Z,5.90
2019-03-21T06:20:25.555Z,8.10
2019-03-21T06:21:25.805Z,5.40
2019-03-21T06:22:25.933Z,7.50
2019-03-21T06:23:25.977Z,6.90
2019-03-21T06:24:26.300Z,7.40
2019-03-21T06:25:26.364Z,6.80
2019-03-21T06:26:28.388Z,6.40
2019-03-21T06:27:26.719Z,6.00
2019-03-21T06:28:26.956Z,7.40
2019-03-21T06:29:27.066Z,6.40
2019-03-21T06:30:27.125Z,6.00
2019-03-21T06:31:27.327Z,6.60
2019-03-21T06:32:28.867Z,6.70
2019-03-21T06:33:30.525Z,7.50
2019-03-21T06:34:30.053Z,7.90
2019-03-21T06:35:29.028Z,7.80
2019-03-21T06:36:28.776Z,6.90
2019-03-21T06:37:29.951Z,7.40
2019-03-21T06:38:29.304Z,6.40
2019-03-21T06:39:28.633Z,8.80
2019-03-21T06:40:28.756Z,6.80
2019-03-21T06:41:29.006Z,8.70
2019-03-21T06:42:29.191Z,7.00
2019-03-21T06:43:29.294Z,7.40
2019-03-21T06:44:29.553Z,8.50
2019-03-21T06:45:29.749Z,6.10
2019-03-21T06:46:31.211Z,7.60
2019-03-21T06:47:29.927Z,6.40
2019-03-21T06:48:31.208Z,7.10
2019-03-21T06:49:30.379Z,6.20
2019-03-21T06:50:31.451Z,5.50
2019-03-21T06:51:30.576Z,6.60
2019-03-21T06:52:30.809Z,7.90
2019-03-21T06:53:32.523Z,5.40
2019-03-21T06:54:31.280Z,6.70
2019-03-21T06:55:33.006Z,4.60
2019-03-21T06:56:32.763Z,5.40
2019-03-21T06:57:31.732Z,5.70
2019-03-21T06:58:31.832Z,5.50
2019-03-21T06:59:32.043Z,5.20
2019-03-21T07:00:32.143Z,6.40
2019-03-21T07:01:32.315Z,5.80
2019-03-21T07:02:32.460Z,5.70
2019-03-21T07:03:32.615Z,5.40
2019-03-21T07:04:32.779Z,5.50
2019-03-21T07:05:32.919Z,6.60
2019-03-21T07:06:33.103Z,4.20
2019-03-21T07:07:33.287Z,6.40
2019-03-21T07:08:33.467Z,5.20
2019-03-21T07:09:33.645Z,4.50
2019-03-21T07:10:33.818Z,4.60
2019-03-21T07:11:33.897Z,5.00
2019-03-21T07:12:34.160Z,4.40
2019-03-21T07:13:34.532Z,5.80
2019-03-21T07:14:35.123Z,5.10
2019-03-21T07:15:35.486Z,5.80
2019-03-21T07:16:34.894Z,4.70
2019-03-21T07:17:35.128Z,5.60
2019-03-21T07:18:35.199Z,5.50
2019-03-21T07:19:36.181Z,5.20
2019-03-21T07:20:36.714Z,6.60
2019-03-21T07:21:35.897Z,5.70
2019-03-21T07:22:38.363Z,5.90
2019-03-21T07:23:36.031Z,5.00
2019-03-21T07:24:36.170Z,5.60
2019-03-21T07:25:36.318Z,4.60
2019-03-21T07:26:36.518Z,6.20
2019-03-21T07:27:36.682Z,4.50
2019-03-21T07:28:38.547Z,5.90
2019-03-21T07:29:37.122Z,5.30
2019-03-21T07:30:37.144Z,4.80
2019-03-21T07:31:37.262Z,4.80
2019-03-21T07:32:37.363Z,3.80
2019-03-21T07:33:37.502Z,4.80
2019-03-21T07:34:37.657Z,4.90
2019-03-21T07:35:37.867Z,4.10
2019-03-21T07:36:38.090Z,6.20
2019-03-21T07:37:38.193Z,5.80
2019-03-21T07:38:38.336Z,5.00
2019-03-21T07:39:38.537Z,5.30
2019-03-21T07:40:38.749Z,5.00
2019-03-21T07:41:38.924Z,4.30
2019-03-21T07:42:39.135Z,5.20
2019-03-21T07:43:39.299Z,5.70
2019-03-21T07:44:39.357Z,6.00
2019-03-21T07:45:39.575Z,6.40
2019-03-21T07:46:39.673Z,6.00
2019-03-21T07:47:39.837Z,5.70
2019-03-21T07:48:40.027Z,5.80
2019-03-21T07:49:40.126Z,5.70
2019-03-21T07:50:40.339Z,4.10
2019-03-21T07:51:40.530Z,5.40
2019-03-21T07:52:40.688Z,4.80
2019-03-21T07:53:40.948Z,5.40
2019-03-21T07:54:41.026Z,5.00
2019-03-21T07:55:41.210Z,4.90
2019-03-21T07:56:41.394Z,5.80
2019-03-21T07:57:41.628Z,4.10
2019-03-21T07:58:44.318Z,5.40
2019-03-21T07:59:41.966Z,5.10
2019-03-21T08:00:42.026Z,5.60
2019-03-21T08:01:42.316Z,5.10
2019-03-21T08:02:42.332Z,6.30
2019-03-21T08:03:51.174Z,5.00
2019-03-21T08:04:43.401Z,4.10
2019-03-21T08:05:50.638Z,5.10
2019-03-21T08:06:50.700Z,6.30
2019-03-21T08:07:43.251Z,5.50
2019-03-21T08:08:43.479Z,5.30
2019-03-21T08:09:44.571Z,6.60
2019-03-21T08:10:43.682Z,4.10
2019-03-21T08:11:43.949Z,4.00
2019-03-21T08:12:44.069Z,5.30
2019-03-21T08:13:44.195Z,5.50
2019-03-21T08:14:44.269Z,4.70
2019-03-21T08:15:44.505Z,6.20
2019-03-21T08:16:44.624Z,6.30
2019-03-21T08:17:44.711Z,5.40
2019-03-21T08:18:45.104Z,6.00
2019-03-21T08:19:45.129Z,4.90
2019-03-21T08:20:55.852Z,5.00
2019-03-21T08:21:45.609Z,6.10
2019-03-21T08:22:45.613Z,7.00
2019-03-21T08:23:45.862Z,7.10
2019-03-21T08:24:45.942Z,5.60
2019-03-21T08:25:46.022Z,6.10
2019-03-21T08:26:46.254Z,6.40
2019-03-21T08:27:46.983Z,7.10
2019-03-21T08:28:46.546Z,6.10
2019-03-21T08:29:46.819Z,6.10
2019-03-21T08:30:46.900Z,4.90
2019-03-21T08:31:47.048Z,6.20
2019-03-21T08:32:47.985Z,5.50
2019-03-21T08:33:47.410Z,5.00
2019-03-21T08:34:47.512Z,6.70
2019-03-21T08:35:47.742Z,7.20
2019-03-21T08:36:47.746Z,5.30
2019-03-21T08:37:47.958Z,7.20
2019-03-21T08:38:48.288Z,7.10
2019-03-21T08:39:48.665Z,5.80
2019-03-21T08:40:48.731Z,5.70
2019-03-21T08:41:48.697Z,5.40
2019-03-21T08:42:48.813Z,6.00
2019-03-21T08:43:49.131Z,5.70
2019-03-21T08:44:49.218Z,5.00
2019-03-21T08:45:49.482Z,5.60
2019-03-21T08:46:49.524Z,6.30
2019-03-21T08:47:49.640Z,6.20
2019-03-21T08:48:50.470Z,6.30
2019-03-21T08:49:50.500Z,6.70
2019-03-21T08:50:50.294Z,6.70
2019-03-21T08:51:52.539Z,5.50
2019-03-21T08:52:51.044Z,6.00
2019-03-21T08:53:51.171Z,6.40
2019-03-21T08:54:50.835Z,4.70
2019-03-21T08:55:50.938Z,6.40
2019-03-21T08:56:51.042Z,7.90
2019-03-21T08:57:51.238Z,5.80
2019-03-21T08:58:51.834Z,6.00
2019-03-21T08:59:51.649Z,6.60
2019-03-21T09:00:51.896Z,7.40
2019-03-21T09:01:51.886Z,5.10
2019-03-21T09:02:52.300Z,4.90
2019-03-21T09:03:52.281Z,5.30
2019-03-21T09:04:52.497Z,5.90
2019-03-21T09:05:52.669Z,6.20
2019-03-21T09:06:52.940Z,6.80
2019-03-21T09:07:53.046Z,5.30
2019-03-21T09:08:53.209Z,5.40
2019-03-21T09:09:53.564Z,5.40
2019-03-21T09:10:53.613Z,4.60
2019-03-21T09:11:53.744Z,5.50
2019-03-21T09:12:53.796Z,5.50
2019-03-21T09:13:54.013Z,5.00
2019-03-21T09:14:54.029Z,8.40
2019-03-21T09:15:54.141Z,5.60
2019-03-21T09:16:54.534Z,6.30
2019-03-21T09:17:55.542Z,6.40
2019-03-21T09:18:54.867Z,4.80
2019-03-21T09:19:54.888Z,6.20
2019-03-21T09:20:55.044Z,6.00
2019-03-21T09:21:55.556Z,7.10
2019-03-21T09:22:55.513Z,6.00
2019-03-21T09:23:55.617Z,4.90
2019-03-21T09:24:55.779Z,5.50
2019-03-21T09:25:56.022Z,4.40
2019-03-21T09:26:56.091Z,5.10
2019-03-21T09:28:02.678Z,5.80
2019-03-21T09:28:56.362Z,5.50
2019-03-21T09:29:56.616Z,5.60
2019-03-21T09:30:56.847Z,5.90
2019-03-21T09:31:56.903Z,7.40
2019-03-21T09:32:57.138Z,5.70
2019-03-21T09:33:57.438Z,4.60
2019-03-21T09:34:57.526Z,5.20
2019-03-21T09:35:57.604Z,6.30
2019-03-21T09:36:57.797Z,5.60
2019-03-21T09:37:58.465Z,6.00
2019-03-21T09:38:58.212Z,4.60
2019-03-21T09:39:58.667Z,5.30
2019-03-21T09:40:59.309Z,4.40
2019-03-21T09:41:58.730Z,5.70
2019-03-21T09:42:58.719Z,5.00
2019-03-21T09:43:59.231Z,4.50
2019-03-21T09:44:59.060Z,4.50
2019-03-21T09:46:00.220Z,4.50
2019-03-21T09:46:59.403Z,4.40
2019-03-21T09:47:59.502Z,5.10
2019-03-21T09:48:59.692Z,4.20
2019-03-21T09:49:59.874Z,5.40
2019-03-21T09:51:00.942Z,5.90
2019-03-21T09:52:00.652Z,5.00
2019-03-21T09:53:02.035Z,5.10
2019-03-21T09:54:09.291Z,5.40
2019-03-21T09:55:00.759Z,4.70
2019-03-21T09:56:01.340Z,6.60
2019-03-21T09:57:01.143Z,4.10
2019-03-21T09:58:01.479Z,4.40
2019-03-21T09:59:01.511Z,6.30
2019-03-21T10:00:01.632Z,5.10
2019-03-21T10:01:01.927Z,5.80
2019-03-21T10:02:02.019Z,4.50
2019-03-21T10:03:02.194Z,5.40
2019-03-21T10:04:04.059Z,4.90
2019-03-21T10:05:02.544Z,6.30
2019-03-21T10:06:02.764Z,6.00
2019-03-21T10:07:02.972Z,4.80
2019-03-21T10:08:03.267Z,5.50
2019-03-21T10:09:03.637Z,4.90
2019-03-21T10:10:03.716Z,5.60
2019-03-21T10:11:03.759Z,5.50
2019-03-21T10:12:03.853Z,6.00
2019-03-21T10:13:03.923Z,5.90
2019-03-21T10:14:04.113Z,5.10
2019-03-21T10:15:04.517Z,4.30
2019-03-21T10:16:04.572Z,5.20
2019-03-21T10:17:04.689Z,5.30
2019-03-21T10:18:04.824Z,4.50
2019-03-21T10:19:05.008Z,8.10
2019-03-21T10:20:05.275Z,5.50
2019-03-21T10:21:05.381Z,4.40
2019-03-21T10:22:05.598Z,4.70
2019-03-21T10:23:05.815Z,4.70
2019-03-21T10:24:06.000Z,4.80
2019-03-21T10:25:06.151Z,4.70
2019-03-21T10:26:06.336Z,4.50
2019-03-21T10:27:06.535Z,4.80
2019-03-21T10:28:06.756Z,4.20
2019-03-21T10:29:06.779Z,4.50
2019-03-21T10:30:06.956Z,4.80
2019-03-21T10:31:07.327Z,4.20
2019-03-21T10:32:14.181Z,5.00
2019-03-21T10:33:07.569Z,5.70
2019-03-21T10:34:07.820Z,5.20
2019-03-21T10:35:08.024Z,3.90
2019-03-21T10:36:08.106Z,4.00
2019-03-21T10:37:09.735Z,4.90
2019-03-21T10:38:08.462Z,4.00
2019-03-21T10:39:08.626Z,4.90
2019-03-21T10:40:08.854Z,3.10
2019-03-21T10:41:10.041Z,4.40
2019-03-21T10:42:09.174Z,4.20
2019-03-21T10:43:10.519Z,4.50
2019-03-21T10:44:09.431Z,4.20
2019-03-21T10:45:09.868Z,4.20
2019-03-21T10:46:09.799Z,3.50
2019-03-21T10:47:10.859Z,3.80
2019-03-21T10:48:12.021Z,3.30
2019-03-21T10:49:10.421Z,3.80
2019-03-21T10:50:10.933Z,2.60
2019-03-21T10:51:10.816Z,3.50
2019-03-21T10:52:11.118Z,3.90
2019-03-21T10:53:11.065Z,3.00
2019-03-21T10:54:11.253Z,3.10
2019-03-21T10:55:11.525Z,3.30
2019-03-21T10:56:11.880Z,3.40
2019-03-21T10:57:12.029Z,5.40
2019-03-21T10:58:11.888Z,3.40
2019-03-21T10:59:12.659Z,2.80
2019-03-21T11:00:12.463Z,3.10
2019-03-21T11:01:12.713Z,3.40
2019-03-21T11:02:12.704Z,3.60
2019-03-21T11:03:12.988Z,3.50
2019-03-21T11:04:13.117Z,3.80
2019-03-21T11:05:13.472Z,2.80
2019-03-21T11:06:13.480Z,4.10
2019-03-21T11:07:14.311Z,5.00
2019-03-21T11:08:13.631Z,3.60
2019-03-21T11:09:13.800Z,4.10
2019-03-21T11:10:13.921Z,4.20
2019-03-21T11:11:15.003Z,4.70
2019-03-21T11:12:14.949Z,3.60
2019-03-21T11:13:15.167Z,4.30
2019-03-21T11:14:15.358Z,3.30
2019-03-21T11:15:15.593Z,4.70
2019-03-21T11:16:15.742Z,3.00
2019-03-21T11:17:16.909Z,2.90
2019-03-21T11:18:16.014Z,3.80
2019-03-21T11:19:15.947Z,2.70
2019-03-21T11:20:15.993Z,4.40
2019-03-21T11:21:17.160Z,4.20
2019-03-21T11:22:17.521Z,2.60
2019-03-21T11:23:17.210Z,3.20
2019-03-21T11:24:17.499Z,2.90
2019-03-21T11:25:17.496Z,3.90
2019-03-21T11:26:17.798Z,3.30
2019-03-21T11:27:17.354Z,3.00
2019-03-21T11:28:17.836Z,2.20
2019-03-21T11:29:16.803Z,3.60
2019-03-21T11:30:17.029Z,4.00
2019-03-21T11:31:17.218Z,2.60
2019-03-21T11:32:17.403Z,3.00
2019-03-21T11:33:17.636Z,2.30
2019-03-21T11:34:17.751Z,2.70
2019-03-21T11:35:17.948Z,3.30
2019-03-21T11:36:18.014Z,3.10
2019-03-21T11:37:18.243Z,1.80
2019-03-21T11:38:18.485Z,3.00
2019-03-21T11:39:18.981Z,2.30
2019-03-21T11:40:18.903Z,2.60
2019-03-21T11:41:19.556Z,3.20
2019-03-21T11:42:19.262Z,3.10
2019-03-21T11:43:19.464Z,3.20
2019-03-21T11:44:19.681Z,2.40
2019-03-21T11:45:20.426Z,2.80
2019-03-21T11:46:22.426Z,2.90
2019-03-21T11:47:22.597Z,4.50
2019-03-21T11:48:20.381Z,2.20
2019-03-21T11:49:20.656Z,2.70
2019-03-21T11:50:20.871Z,2.20
2019-03-21T11:51:20.983Z,3.50
2019-03-21T11:52:21.220Z,3.10
2019-03-21T11:53:21.492Z,3.90
2019-03-21T11:54:21.690Z,2.50
2019-03-21T11:55:21.791Z,3.40
2019-03-21T11:56:21.992Z,3.30
2019-03-21T11:57:22.093Z,3.80
2019-03-21T11:58:22.342Z,4.00
2019-03-21T11:59:22.580Z,2.90
2019-03-21T12:00:22.836Z,3.40
2019-03-21T12:01:22.950Z,3.00
2019-03-21T12:02:27.408Z,3.20
2019-03-21T12:03:24.436Z,3.20
2019-03-21T12:04:23.552Z,3.00
2019-03-21T12:05:23.817Z,3.60
2019-03-21T12:06:23.928Z,4.30
2019-03-21T12:07:24.115Z,3.70
2019-03-21T12:08:24.362Z,3.80
2019-03-21T12:09:24.555Z,3.40
2019-03-21T12:10:24.967Z,4.30
2019-03-21T12:11:24.864Z,4.40
2019-03-21T12:12:24.957Z,5.60
2019-03-21T12:13:25.286Z,4.40
2019-03-21T12:14:25.364Z,3.10
2019-03-21T12:15:25.563Z,4.90
2019-03-21T12:16:25.837Z,3.90
2019-03-21T12:17:25.958Z,4.30
2019-03-21T12:18:26.194Z,4.10
2019-03-21T12:19:26.432Z,3.60
2019-03-21T12:20:26.368Z,4.30
2019-03-21T12:21:26.577Z,3.60
2019-03-21T12:22:30.291Z,3.40
2019-03-21T12:23:26.994Z,6.00
2019-03-21T12:24:27.112Z,3.20
2019-03-21T12:25:27.790Z,3.70
2019-03-21T12:26:27.655Z,3.70
2019-03-21T12:27:27.933Z,3.90
2019-03-21T12:28:28.001Z,3.50
2019-03-21T12:29:28.185Z,4.20
2019-03-21T12:30:28.373Z,4.00
2019-03-21T12:31:28.884Z,3.60
2019-03-21T12:32:28.767Z,4.70
2019-03-21T12:33:29.011Z,3.70
2019-03-21T12:34:29.269Z,4.90
2019-03-21T12:35:29.476Z,3.10
2019-03-21T12:36:29.776Z,4.00
2019-03-21T12:37:29.737Z,3.40
2019-03-21T12:38:29.964Z,3.20
2019-03-21T12:39:30.179Z,3.00
2019-03-21T12:40:30.211Z,4.40
2019-03-21T12:41:30.424Z,4.20
2019-03-21T12:42:30.580Z,3.70
2019-03-21T12:43:30.868Z,4.50
2019-03-21T12:44:31.972Z,4.00
2019-03-21T12:45:32.381Z,3.40
2019-03-21T12:46:33.088Z,6.30
2019-03-21T12:47:33.609Z,4.00
2019-03-21T12:48:34.040Z,3.30
2019-03-21T12:49:34.109Z,4.20
2019-03-21T12:50:34.029Z,4.10
2019-03-21T12:51:33.644Z,4.80
2019-03-21T12:52:41.008Z,4.30
2019-03-21T12:53:32.584Z,5.20
2019-03-21T12:54:32.712Z,4.00
2019-03-21T12:55:32.712Z,4.30
2019-03-21T12:56:32.928Z,4.40
2019-03-21T12:57:33.310Z,3.60
2019-03-21T12:58:33.221Z,3.30
2019-03-21T12:59:33.331Z,3.90
2019-03-21T13:00:33.921Z,2.60
2019-03-21T13:01:33.769Z,4.30
2019-03-21T13:02:33.996Z,3.80
2019-03-21T13:03:34.208Z,4.90
2019-03-21T13:04:34.511Z,5.10
2019-03-21T13:05:34.456Z,4.30
2019-03-21T13:06:34.664Z,3.80
2019-03-21T13:07:34.853Z,4.60
2019-03-21T13:08:34.918Z,4.10
2019-03-21T13:09:35.254Z,4.50
2019-03-21T13:10:35.341Z,3.80
2019-03-21T13:11:35.407Z,4.50
2019-03-21T13:12:35.671Z,4.50
2019-03-21T13:13:36.309Z,4.70
2019-03-21T13:14:35.870Z,3.70
2019-03-21T13:15:36.045Z,3.90
2019-03-21T13:16:36.213Z,4.30
2019-03-21T13:17:36.389Z,4.00
2019-03-21T13:18:36.545Z,3.40
2019-03-21T13:19:36.864Z,4.10
2019-03-21T13:20:36.955Z,4.30